Time;durP1;ratioP1;P1;durP2;ratioP2;P2;SDS_P1;SDS_P2;PMS_P1;PMS_P2;Temp;Humidity;BMP_temperature;BMP_pressure;BME280_temperature;BME280_humidity;BME280_pressure;Samples;Min_cycle;Max_cycle;Signal;HPM_P1;HPM_P2
2023/12/25 00:00:04;;;;;;;;;;;;;;;15.13;64.30;99639.75;4971464;28;7238;-78
2023/12/25 00:02:30;;;;;;;;;;;;;;;15.13;64.52;99613.94;5001584;28;7267;-78
2023/12/25 00:04:55;;;;;;;;;;;;;;;15.14;64.49;99646.66;5009967;28;6771;-78
2023/12/25 00:07:21;;;;;;;;;;;;;;;15.14;64.39;99643.22;4976940;28;6966;-78
2023/12/25 00:09:46;;;;;;;;;;;;;;;15.13;64.55;99637.19;4996084;28;6848;-77
2023/12/25 00:12:11;;;;;;;;;;;;;;;15.14;64.04;99638.06;4998468;28;6823;-78
2023/12/25 00:14:37;;;;;;;;;;;;;;;15.16;64.42;99636.38;4998364;28;7025;-77
2023/12/25 00:17:02;;;;;;;;;;;;;;;15.15;64.62;99652.69;4997993;28;7070;-78
2023/12/25 00:19:28;;;;;;;;;;;;;;;15.16;64.63;99638.06;5011792;28;6807;-81
2023/12/25 00:21:53;;;;;;;;;;;;;;;15.14;64.49;99630.31;4983118;28;6796;-82
2023/12/25 00:24:19;;;;;;;;;;;;;;;15.14;63.94;99641.50;4983310;28;6807;-81
2023/12/25 00:26:44;;;;;;;;;;;;;;;15.13;64.67;99638.91;4970179;28;6968;-77
2023/12/25 00:29:10;;;;;;;;;;;;;;;15.11;64.48;99628.53;5003604;28;6903;-78
2023/12/25 00:31:35;;;;;;;;;;;;;;;15.09;64.77;99635.41;4979857;28;7531;-77
2023/12/25 00:34:01;;;;;;;;;;;;;;;15.10;64.28;99631.97;5000135;28;6850;-78
2023/12/25 00:36:26;;;;;;;;;;;;;;;15.09;64.26;99640.56;5016293;28;6938;-77
2023/12/25 00:38:52;;;;;;;;;;;;;;;15.08;64.84;99632.78;4983411;28;6963;-77
2023/12/25 00:41:17;;;;;;;;;;;;;;;15.06;64.53;99645.66;5004997;28;6940;-76
2023/12/25 00:43:43;;;;;;;;;;;;;;;15.06;64.67;99630.16;4980520;28;8410;-79
2023/12/25 00:46:08;;;;;;;;;;;;;;;15.06;64.67;99637.06;5011190;28;6967;-79
2023/12/25 00:48:34;;;;;;;;;;;;;;;15.04;64.61;99634.44;4987081;28;6801;-81
2023/12/25 00:50:59;;;;;;;;;;;;;;;15.02;64.68;99649.03;4989273;28;6952;-77
2023/12/25 00:53:25;;;;;;;;;;;;;;;15.02;64.98;99654.19;4990538;28;6776;-79
2023/12/25 00:55:50;;;;;;;;;;;;;;;15.00;64.82;99641.25;4988304;28;7337;-80
2023/12/25 00:58:16;;;;;;;;;;;;;;;15.00;64.87;99661.03;4983082;28;6931;-80
2023/12/25 01:00:41;;;;;;;;;;;;;;;14.99;64.85;99643.81;4985950;28;6860;-78
2023/12/25 01:03:07;;;;;;;;;;;;;;;14.98;64.66;99637.78;5003274;28;6950;-81
2023/12/25 01:05:33;;;;;;;;;;;;;;;14.99;64.91;99659.31;4992890;28;7351;-80
2023/12/25 01:07:58;;;;;;;;;;;;;;;14.99;64.86;99649.00;4983782;28;6780;-80
2023/12/25 01:10:24;;;;;;;;;;;;;;;15.01;65.15;99660.19;4956914;28;7224;-77
2023/12/25 01:12:49;;;;;;;;;;;;;;;15.00;64.35;99636.09;4971281;28;6783;-78
2023/12/25 01:15:15;;;;;;;;;;;;;;;14.99;64.48;99649.84;4974387;28;6820;-77
2023/12/25 01:17:40;;;;;;;;;;;;;;;14.99;64.50;99649.84;4973873;28;7016;-76
2023/12/25 01:20:06;;;;;;;;;;;;;;;14.99;65.00;99654.16;4968262;28;7055;-77
2023/12/25 01:22:32;;;;;;;;;;;;;;;14.99;64.90;99654.16;4977082;28;7327;-77
2023/12/25 01:24:57;;;;;;;;;;;;;;;14.98;64.54;99675.63;4990939;28;6775;-77
2023/12/25 01:27:23;;;;;;;;;;;;;;;14.99;64.53;99669.63;4973070;28;7174;-77
2023/12/25 01:29:48;;;;;;;;;;;;;;;14.97;64.49;99648.09;4972979;28;8518;-77
2023/12/25 01:32:14;;;;;;;;;;;;;;;14.97;65.19;99656.69;4976594;28;7376;-77
2023/12/25 01:34:39;;;;;;;;;;;;;;;14.95;64.90;99673.88;4972022;28;6807;-77
2023/12/25 01:37:04;;;;;;;;;;;;;;;14.98;65.30;99701.44;4974029;28;6795;-76
2023/12/25 01:39:30;;;;;;;;;;;;;;;14.98;64.61;99699.72;4973346;28;6963;-77
2023/12/25 01:41:55;;;;;;;;;;;;;;;15.01;65.09;99683.44;4989177;28;6969;-76
2023/12/25 01:44:21;;;;;;;;;;;;;;;15.00;65.26;99672.22;4973600;28;6844;-77
2023/12/25 01:46:47;;;;;;;;;;;;;;;14.99;64.94;99685.13;4973776;28;6796;-77
2023/12/25 01:49:12;;;;;;;;;;;;;;;15.00;65.08;99687.69;4973075;28;6788;-77
2023/12/25 01:51:38;;;;;;;;;;;;;;;15.00;64.63;99699.75;4952535;28;7292;-77
2023/12/25 01:54:06;;;;;;;;;;;;;;;15.02;65.14;99702.34;4986415;23;7318;-77
2023/12/25 01:56:32;;;;;;;;;;;;;;;15.02;64.80;99692.91;4938918;28;7006;-77
2023/12/25 01:58:57;;;;;;;;;;;;;;;15.00;64.67;99684.28;4956010;28;6796;-77
2023/12/25 02:01:23;;;;;;;;;;;;;;;14.99;64.78;99703.19;4942708;28;7133;-77
2023/12/25 02:03:49;;;;;;;;;;;;;;;15.01;65.37;99706.66;4959452;28;6810;-77
2023/12/25 02:06:14;;;;;;;;;;;;;;;15.02;64.73;99695.47;4958859;28;7322;-77
2023/12/25 02:08:40;;;;;;;;;;;;;;;15.00;64.51;99702.34;4947951;28;7134;-77
2023/12/25 02:11:05;;;;;;;;;;;;;;;15.00;64.54;99707.50;4953861;28;6800;-77
2023/12/25 02:13:31;;;;;;;;;;;;;;;15.00;64.65;99703.19;4963013;28;6780;-77
2023/12/25 02:15:56;;;;;;;;;;;;;;;14.97;64.97;99703.13;4955270;28;6792;-77
2023/12/25 02:18:23;;;;;;;;;;;;;;;14.98;65.29;99712.63;4949725;28;7992;-78
2023/12/25 02:20:48;;;;;;;;;;;;;;;14.97;65.38;99715.19;4975691;28;7164;-78
2023/12/25 02:23:16;;;;;;;;;;;;;;;14.96;64.91;99721.16;4973429;28;6942;-80
2023/12/25 02:26:02;;;;;;;;;;;;;;;14.97;65.11;99707.44;4960473;28;8463;-79
2023/12/25 02:28:28;;;;;;;;;;;;;;;14.97;65.30;99712.59;4960741;28;6840;-82
2023/12/25 02:30:53;;;;;;;;;;;;;;;14.97;64.73;99712.59;4961724;28;6868;-81
2023/12/25 02:33:19;;;;;;;;;;;;;;;14.99;65.49;99710.91;4943479;28;7058;-81
2023/12/25 02:35:44;;;;;;;;;;;;;;;14.99;64.97;99716.06;4962483;28;6792;-82
2023/12/25 02:38:10;;;;;;;;;;;;;;;15.00;65.07;99708.34;4963704;28;6876;-80
2023/12/25 02:40:39;;;;;;;;;;;;;;;14.99;65.17;99708.34;4955135;28;6944;-78
2023/12/25 02:43:07;;;;;;;;;;;;;;;14.99;65.18;99706.59;4970209;28;6816;-81
2023/12/25 02:45:33;;;;;;;;;;;;;;;14.99;65.25;99703.19;4956350;28;7016;-80
2023/12/25 02:47:58;;;;;;;;;;;;;;;15.00;64.84;99692.00;4971183;28;7088;-80
2023/12/25 02:50:24;;;;;;;;;;;;;;;14.99;64.99;99680.81;4974254;28;6961;-78
2023/12/25 02:52:49;;;;;;;;;;;;;;;14.99;65.19;99690.28;4970326;28;7432;-77
2023/12/25 02:55:15;;;;;;;;;;;;;;;14.99;65.04;99674.78;4964196;28;6964;-79
2023/12/25 02:57:40;;;;;;;;;;;;;;;14.98;65.13;99689.38;4963904;28;6955;-78
2023/12/25 03:00:06;;;;;;;;;;;;;;;14.98;65.72;99696.28;4974069;28;7227;-80
2023/12/25 03:02:32;;;;;;;;;;;;;;;14.98;65.64;99698.84;4975296;28;6795;-77
2023/12/25 03:04:57;;;;;;;;;;;;;;;14.97;65.01;99703.13;4977330;28;6829;-78
2023/12/25 03:07:23;;;;;;;;;;;;;;;15.00;65.53;99707.50;4964908;28;7220;-79
2023/12/25 03:09:48;;;;;;;;;;;;;;;15.00;65.10;99704.91;4966666;28;6968;-76
2023/12/25 03:12:14;;;;;;;;;;;;;;;15.00;65.85;99718.66;4997755;28;6803;-81
2023/12/25 03:14:40;;;;;;;;;;;;;;;15.00;65.34;99713.50;4973930;28;6934;-78
2023/12/25 03:17:06;;;;;;;;;;;;;;;15.01;65.41;99701.50;4977095;28;7179;-77
2023/12/25 03:19:31;;;;;;;;;;;;;;;15.02;65.60;99718.72;4983400;28;6929;-77
2023/12/25 03:21:57;;;;;;;;;;;;;;;15.03;65.73;99722.16;4982516;28;6930;-76
2023/12/25 03:24:22;;;;;;;;;;;;;;;15.03;65.21;99717.88;4969103;28;7249;-77
2023/12/25 03:26:49;;;;;;;;;;;;;;;15.05;65.92;99721.34;4983759;28;6932;-79
2023/12/25 03:29:15;;;;;;;;;;;;;;;15.07;65.34;99732.59;4949003;28;7016;-77
2023/12/25 03:31:40;;;;;;;;;;;;;;;15.11;65.82;99718.88;4973779;28;7019;-78
2023/12/25 03:34:06;;;;;;;;;;;;;;;15.14;65.71;99720.66;4984100;28;8128;-77
2023/12/25 03:36:31;;;;;;;;;;;;;;;15.20;65.78;99714.72;4982561;28;6772;-80
2023/12/25 03:38:57;;;;;;;;;;;;;;;15.25;65.17;99718.25;4993883;28;7115;-78
2023/12/25 03:41:22;;;;;;;;;;;;;;;15.27;65.22;99730.34;4980211;28;6792;-80
2023/12/25 03:43:48;;;;;;;;;;;;;;;15.32;65.36;99735.59;4976521;28;6851;-78
2023/12/25 03:46:13;;;;;;;;;;;;;;;15.35;65.24;99730.47;4986510;28;6780;-81
2023/12/25 03:48:39;;;;;;;;;;;;;;;15.39;64.77;99739.16;4983198;28;6791;-77
2023/12/25 03:51:04;;;;;;;;;;;;;;;15.41;64.89;99698.75;4981046;28;6852;-80
2023/12/25 03:53:31;;;;;;;;;;;;;;;15.43;64.57;99716.84;4975923;28;7221;-80
2023/12/25 03:56:01;;;;;;;;;;;;;;;15.44;64.37;99708.25;4961944;28;7135;-83
2023/12/25 03:58:26;;;;;;;;;;;;;;;15.45;64.63;99712.56;4977362;28;6985;-82
2023/12/25 04:00:52;;;;;;;;;;;;;;;15.47;64.83;99716.06;4999194;28;7189;-78
2023/12/25 04:03:17;;;;;;;;;;;;;;;15.47;64.68;99709.16;5006429;28;6935;-77
2023/12/25 04:05:43;;;;;;;;;;;;;;;15.50;64.26;99713.53;5004896;28;6768;-77
2023/12/25 04:08:08;;;;;;;;;;;;;;;15.50;64.31;99679.94;4977442;28;7172;-77
2023/12/25 04:10:34;;;;;;;;;;;;;;;15.51;64.10;99715.25;4987392;28;6929;-81
2023/12/25 04:12:59;;;;;;;;;;;;;;;15.51;63.97;99730.75;4999558;28;6950;-78
2023/12/25 04:15:25;;;;;;;;;;;;;;;15.50;64.22;99731.59;4988272;28;6936;-77
2023/12/25 04:17:50;;;;;;;;;;;;;;;15.51;63.90;99733.34;4980618;28;6776;-80
2023/12/25 04:20:16;;;;;;;;;;;;;;;15.49;64.18;99729.88;4997752;28;7235;-78
2023/12/25 04:22:41;;;;;;;;;;;;;;;15.48;64.15;99725.53;4976047;28;6922;-77
2023/12/25 04:25:07;;;;;;;;;;;;;;;15.47;64.27;99740.16;4984907;28;7026;-78
2023/12/25 04:27:32;;;;;;;;;;;;;;;15.46;64.32;99733.25;4973744;28;6990;-78
2023/12/25 04:29:58;;;;;;;;;;;;;;;15.47;63.91;99716.06;4989042;28;6863;-78
2023/12/25 04:32:23;;;;;;;;;;;;;;;15.44;63.87;99728.91;4971603;28;6943;-82
2023/12/25 04:34:48;;;;;;;;;;;;;;;15.42;63.88;99728.91;4970451;28;6847;-82
2023/12/25 04:37:14;;;;;;;;;;;;;;;15.37;63.86;99739.13;4967056;28;6788;-81
2023/12/25 04:39:43;;;;;;;;;;;;;;;15.31;63.59;99718.38;4989371;28;6788;-78
2023/12/25 04:42:09;;;;;;;;;;;;;;;15.25;63.66;99734.63;4985621;28;7255;-82
2023/12/25 04:44:34;;;;;;;;;;;;;;;15.19;63.69;99728.47;4979963;28;6796;-78
2023/12/25 04:47:00;;;;;;;;;;;;;;;15.14;63.82;99726.66;4959306;28;6947;-78
2023/12/25 04:49:25;;;;;;;;;;;;;;;15.13;64.22;99736.97;4975982;28;6931;-77
2023/12/25 04:51:50;;;;;;;;;;;;;;;15.12;64.21;99727.50;4962968;28;7187;-78
2023/12/25 04:54:16;;;;;;;;;;;;;;;15.10;64.21;99718.84;4966763;28;6959;-77
2023/12/25 04:56:41;;;;;;;;;;;;;;;15.10;63.90;99724.00;4972019;28;6954;-77
2023/12/25 04:59:09;;;;;;;;;;;;;;;15.09;64.65;99724.84;4976834;28;7027;-77
2023/12/25 05:01:34;;;;;;;;;;;;;;;15.07;64.36;99719.69;4972155;28;7296;-77
2023/12/25 05:04:00;;;;;;;;;;;;;;;15.07;64.58;99713.63;4983800;28;7184;-77
2023/12/25 05:06:25;;;;;;;;;;;;;;;15.06;64.08;99728.22;4972168;28;7241;-78
2023/12/25 05:08:51;;;;;;;;;;;;;;;15.05;64.49;99723.06;4973487;28;6772;-80
2023/12/25 05:11:16;;;;;;;;;;;;;;;15.07;64.36;99711.06;4958522;28;7000;-80
2023/12/25 05:13:42;;;;;;;;;;;;;;;15.05;64.03;99710.16;4969398;28;6787;-81
2023/12/25 05:16:07;;;;;;;;;;;;;;;15.03;64.52;99711.84;4958909;28;7082;-79
2023/12/25 05:18:32;;;;;;;;;;;;;;;15.02;64.71;99720.41;4968174;28;7003;-81
2023/12/25 05:20:59;;;;;;;;;;;;;;;14.99;64.34;99722.09;4979391;28;6784;-81
2023/12/25 05:23:24;;;;;;;;;;;;;;;14.98;64.50;99714.34;4991932;28;6860;-79
2023/12/25 05:25:50;;;;;;;;;;;;;;;14.97;64.50;99708.28;4979272;28;7450;-79
2023/12/25 05:28:15;;;;;;;;;;;;;;;14.97;64.52;99720.34;4995881;28;6965;-78
2023/12/25 05:30:41;;;;;;;;;;;;;;;14.96;64.21;99726.31;4980355;28;8817;-78
2023/12/25 05:33:06;;;;;;;;;;;;;;;14.96;64.44;99716.00;4988288;28;6772;-79
2023/12/25 05:35:32;;;;;;;;;;;;;;;14.96;64.29;99722.03;4972189;28;6979;-78
2023/12/25 05:37:58;;;;;;;;;;;;;;;14.95;65.00;99719.41;5003128;28;7182;-78
2023/12/25 05:40:23;;;;;;;;;;;;;;;14.95;65.16;99714.25;4990479;28;6772;-79
2023/12/25 05:42:48;;;;;;;;;;;;;;;14.95;64.34;99732.31;4982413;28;6936;-77
2023/12/25 05:45:14;;;;;;;;;;;;;;;14.94;64.88;99703.09;4987182;28;6844;-77
2023/12/25 05:47:40;;;;;;;;;;;;;;;14.94;64.50;99710.81;4963898;28;6939;-78
2023/12/25 05:50:09;;;;;;;;;;;;;;;14.94;64.66;99709.94;4972214;28;6776;-77
2023/12/25 05:52:34;;;;;;;;;;;;;;;14.93;65.04;99705.63;4940261;28;7273;-77
2023/12/25 05:55:00;;;;;;;;;;;;;;;14.93;65.14;99705.63;4966887;28;7303;-78
2023/12/25 05:57:27;;;;;;;;;;;;;;;14.92;64.95;99704.78;4956812;28;6959;-78
2023/12/25 05:59:52;;;;;;;;;;;;;;;14.92;64.59;99701.31;4976023;28;6824;-77
2023/12/25 06:02:18;;;;;;;;;;;;;;;14.91;64.94;99712.47;4951878;28;7357;-77
2023/12/25 06:04:44;;;;;;;;;;;;;;;14.91;64.97;99710.75;4947025;28;7962;-77
2023/12/25 06:07:11;;;;;;;;;;;;;;;14.91;64.66;99681.50;4954474;28;7216;-78
2023/12/25 06:09:37;;;;;;;;;;;;;;;14.91;64.78;99709.91;4956664;28;6976;-78
2023/12/25 06:12:02;;;;;;;;;;;;;;;14.92;64.82;99714.22;4948529;28;7219;-78
2023/12/25 06:14:28;;;;;;;;;;;;;;;14.91;64.84;99709.91;4937056;28;7323;-77
2023/12/25 06:16:53;;;;;;;;;;;;;;;14.89;65.02;99714.16;4951538;28;6792;-77
2023/12/25 06:19:19;;;;;;;;;;;;;;;14.89;65.15;99719.31;4957160;28;7004;-77
2023/12/25 06:21:44;;;;;;;;;;;;;;;14.89;65.13;99729.66;4959877;28;7393;-76
2023/12/25 06:24:10;;;;;;;;;;;;;;;14.91;64.92;99715.06;4944613;28;7239;-77
2023/12/25 06:26:35;;;;;;;;;;;;;;;14.91;65.08;99717.63;4948724;28;9328;-77
2023/12/25 06:29:01;;;;;;;;;;;;;;;14.89;64.87;99717.59;4947512;28;6943;-77
2023/12/25 06:31:26;;;;;;;;;;;;;;;14.90;65.41;99726.22;4954423;28;7762;-77
2023/12/25 06:33:52;;;;;;;;;;;;;;;14.89;65.11;99712.44;4956524;28;6938;-77
2023/12/25 06:36:17;;;;;;;;;;;;;;;14.87;65.10;99724.44;4951259;28;6780;-77
2023/12/25 06:38:43;;;;;;;;;;;;;;;14.89;64.89;99712.44;4946855;28;6840;-78
2023/12/25 06:41:11;;;;;;;;;;;;;;;14.90;64.72;99726.22;4956273;28;6787;-77
2023/12/25 06:43:36;;;;;;;;;;;;;;;14.88;65.19;99718.44;4954204;28;7174;-77
2023/12/25 06:46:01;;;;;;;;;;;;;;;14.90;65.06;99723.63;4977385;28;7787;-77
2023/12/25 06:48:27;;;;;;;;;;;;;;;14.89;65.30;99709.00;4975495;28;6840;-78
2023/12/25 06:50:53;;;;;;;;;;;;;;;14.90;65.35;99715.91;4968500;28;8435;-77
2023/12/25 06:53:19;;;;;;;;;;;;;;;14.89;65.19;99714.16;4953921;28;6844;-77
2023/12/25 06:55:44;;;;;;;;;;;;;;;14.90;65.29;99724.50;4945470;28;7320;-77
2023/12/25 06:58:10;;;;;;;;;;;;;;;14.91;65.01;99717.63;4936910;28;7213;-77
2023/12/25 07:00:35;;;;;;;;;;;;;;;14.90;65.23;99715.91;4973978;28;6922;-78
2023/12/25 07:03:01;;;;;;;;;;;;;;;14.90;64.92;99711.59;4958797;28;6779;-78
2023/12/25 07:05:26;;;;;;;;;;;;;;;14.90;65.05;99710.75;4937195;28;6954;-81
2023/12/25 07:07:51;;;;;;;;;;;;;;;14.91;65.16;99708.16;4947471;28;7816;-81
2023/12/25 07:10:18;;;;;;;;;;;;;;;14.90;64.98;99719.34;4960429;28;6993;-82
2023/12/25 07:12:43;;;;;;;;;;;;;;;14.91;65.55;99733.97;4952053;28;7145;-81
2023/12/25 07:15:09;;;;;;;;;;;;;;;14.91;64.88;99699.56;4965388;28;6784;-78
2023/12/25 07:17:35;;;;;;;;;;;;;;;14.93;65.24;99703.03;4967879;28;7194;-81
2023/12/25 07:20:00;;;;;;;;;;;;;;;14.91;64.96;99717.63;4950850;28;6951;-81
2023/12/25 07:22:27;;;;;;;;;;;;;;;14.92;65.24;99720.25;4959008;28;6981;-81
2023/12/25 07:24:52;;;;;;;;;;;;;;;14.95;64.66;99724.59;4955772;28;6979;-78
2023/12/25 07:27:18;;;;;;;;;;;;;;;14.95;65.14;99716.84;4940274;28;6843;-81
2023/12/25 07:29:43;;;;;;;;;;;;;;;14.94;64.89;99722.84;4955794;28;7130;-79
2023/12/25 07:32:10;;;;;;;;;;;;;;;14.93;65.56;99736.59;4958785;28;6955;-80
2023/12/25 07:34:36;;;;;;;;;;;;;;;14.94;65.26;99743.50;4950044;28;7217;-80
2023/12/25 07:37:02;;;;;;;;;;;;;;;14.96;65.38;99757.28;4940102;28;6836;-79
2023/12/25 07:39:27;;;;;;;;;;;;;;;14.96;65.00;99744.38;4942731;28;7182;-81
2023/12/25 07:41:55;;;;;;;;;;;;;;;14.97;65.15;99746.16;4970788;28;7881;-80
2023/12/25 07:44:21;;;;;;;;;;;;;;;14.97;64.95;99749.59;4960641;28;7254;-80
2023/12/25 07:46:46;;;;;;;;;;;;;;;14.98;65.33;99753.03;4958431;28;6800;-78
2023/12/25 07:49:12;;;;;;;;;;;;;;;14.98;65.56;99758.22;4971815;28;6807;-80
2023/12/25 07:51:37;;;;;;;;;;;;;;;14.99;65.24;99763.38;4967276;28;9279;-80
2023/12/25 07:54:03;;;;;;;;;;;;;;;15.02;65.61;99765.16;4958240;28;6848;-80
2023/12/25 07:56:28;;;;;;;;;;;;;;;15.05;65.47;99746.28;4955745;28;6780;-81
2023/12/25 07:58:54;;;;;;;;;;;;;;;15.08;65.25;99747.22;4967309;28;6800;-81
2023/12/25 08:01:22;;;;;;;;;;;;;;;15.11;64.81;99759.28;4956331;28;9454;-82
2023/12/25 08:03:49;;;;;;;;;;;;;;;15.14;64.69;99747.31;4955894;28;7386;-79
2023/12/25 08:06:14;;;;;;;;;;;;;;;15.18;64.75;99760.31;4948878;28;6980;-78
2023/12/25 08:08:40;;;;;;;;;;;;;;;15.20;65.10;99767.22;4956602;28;7392;-77
2023/12/25 08:11:05;;;;;;;;;;;;;;;15.26;64.97;99761.31;4962112;28;7160;-78
2023/12/25 08:13:31;;;;;;;;;;;;;;;15.28;64.69;99757.03;4983497;28;7019;-76
2023/12/25 08:15:56;;;;;;;;;;;;;;;15.32;65.01;99745.91;4985390;28;6840;-76
2023/12/25 08:18:22;;;;;;;;;;;;;;;15.33;64.79;99751.97;4993661;28;6903;-76
2023/12/25 08:20:47;;;;;;;;;;;;;;;15.34;64.74;99754.56;4983429;28;6776;-76
2023/12/25 08:23:13;;;;;;;;;;;;;;;15.33;64.56;99763.16;4973776;28;6943;-77
2023/12/25 08:25:38;;;;;;;;;;;;;;;15.31;64.84;99749.34;4991353;28;6932;-77
2023/12/25 08:28:04;;;;;;;;;;;;;;;15.31;64.83;99761.41;4991540;28;7195;-76
2023/12/25 08:30:30;;;;;;;;;;;;;;;15.30;64.62;99768.25;4988304;28;6804;-76
2023/12/25 08:32:55;;;;;;;;;;;;;;;15.31;64.89;99769.16;4979602;28;8260;-76
2023/12/25 08:35:20;;;;;;;;;;;;;;;15.29;64.88;99761.38;4985457;28;6910;-76
2023/12/25 08:37:46;;;;;;;;;;;;;;;15.27;64.57;99755.31;4984465;28;7199;-76
2023/12/25 08:40:11;;;;;;;;;;;;;;;15.27;64.52;99766.50;4989994;28;6780;-77
2023/12/25 08:42:37;;;;;;;;;;;;;;;15.26;64.82;99782.81;4984092;28;6764;-77
2023/12/25 08:45:04;;;;;;;;;;;;;;;15.26;64.80;99787.13;4985482;28;7142;-76
2023/12/25 08:47:29;;;;;;;;;;;;;;;15.26;64.83;99787.13;4980673;28;7230;-76
2023/12/25 08:49:55;;;;;;;;;;;;;;;15.26;64.71;99788.00;4976586;28;6794;-76
2023/12/25 08:52:21;;;;;;;;;;;;;;;15.25;64.69;99790.53;4977356;28;8236;-76
2023/12/25 08:54:47;;;;;;;;;;;;;;;15.27;64.79;99796.63;4983327;28;7394;-76
2023/12/25 08:57:13;;;;;;;;;;;;;;;15.28;64.87;99795.78;4979562;28;7224;-76
2023/12/25 08:59:49;;;;;;;;;;;;;;;;;;;;;
2023/12/25 09:02:30;;;;;;;;;;;;;;;15.31;65.14;99807.88;4971812;28;6894;-85
2023/12/25 09:08:11;;;;;;;;;;;;;;;15.31;64.87;99800.97;4974307;28;7230;-86
2023/12/25 09:10:58;;;;;;;;;;;;;;;15.38;65.00;99810.59;4971081;28;6954;-85
2023/12/25 09:13:28;;;;;;;;;;;;;;;15.37;64.66;99811.44;4956908;28;6900;-86
2023/12/25 09:16:26;;;;;;;;;;;;;;;15.40;64.73;99816.66;4967299;28;6971;-86
2023/12/25 09:23:55;;;;;;;;;;;;;;;15.37;64.79;99816.59;4978260;28;7200;-76
2023/12/25 09:26:21;;;;;;;;;;;;;;;15.36;65.13;99820.03;4982914;28;6792;-76
2023/12/25 09:28:47;;;;;;;;;;;;;;;15.37;64.78;99795.94;4980882;28;6852;-76
2023/12/25 09:31:13;;;;;;;;;;;;;;;15.36;64.63;99813.97;4986565;28;6975;-75
2023/12/25 09:33:40;;;;;;;;;;;;;;;15.39;64.95;99808.88;4978753;28;7079;-78
2023/12/25 09:36:08;;;;;;;;;;;;;;;15.39;65.28;99811.44;4971628;28;6992;-76
2023/12/25 09:38:34;;;;;;;;;;;;;;;15.39;65.58;99821.78;4990144;28;7465;-76
2023/12/25 09:40:59;;;;;;;;;;;;;;;15.39;65.15;99812.34;4980925;28;6828;-76
2023/12/25 09:43:27;;;;;;;;;;;;;;;15.38;64.91;99831.25;4981005;28;6917;-76
2023/12/25 09:45:53;;;;;;;;;;;;;;;15.39;64.83;99833.00;5003699;28;7148;-76
2023/12/25 09:48:19;;;;;;;;;;;;;;;15.38;64.70;99831.25;4997964;28;6856;-76
2023/12/25 09:50:44;;;;;;;;;;;;;;;15.37;64.96;99834.69;4977956;28;6788;-76
2023/12/25 09:53:10;;;;;;;;;;;;;;;15.37;64.96;99847.59;4982851;28;6946;-76
2023/12/25 09:55:35;;;;;;;;;;;;;;;15.37;65.08;99845.00;4980681;28;6780;-76
2023/12/25 09:58:06;;;;;;;;;;;;;;;15.39;64.84;99845.91;4970181;23;7466;-86
2023/12/25 10:00:32;;;;;;;;;;;;;;;15.39;65.10;99853.63;4935880;28;6984;-79
2023/12/25 10:03:05;;;;;;;;;;;;;;;15.41;64.98;99849.38;4942161;28;7163;-89
2023/12/25 10:05:34;;;;;;;;;;;;;;;15.44;65.35;99853.72;4967662;28;6796;-89
2023/12/25 10:08:09;;;;;;;;;;;;;;;15.47;65.03;99855.50;4957774;28;6977;-89
2023/12/25 10:10:36;;;;;;;;;;;;;;;15.51;65.50;99846.97;4942887;28;6970;-89
2023/12/25 10:13:02;;;;;;;;;;;;;;;15.51;64.86;99839.22;4967068;28;7193;-87
2023/12/25 10:15:27;;;;;;;;;;;;;;;15.52;65.18;99854.75;4945667;28;6804;-87
2023/12/25 10:18:05;;;;;;;;;;;;;;;15.51;65.30;99844.38;4957386;28;7216;-87
2023/12/25 10:20:40;;;;;;;;;;;;;;;15.51;65.17;99837.53;4959680;28;6807;-88
2023/12/25 10:27:05;;;;;;;;;;;;;;;15.52;64.87;99846.13;4960185;28;6804;-90
2023/12/25 10:33:11;;;;;;;;;;;;;;;15.54;65.46;99823.78;4935276;28;7168;-90
2023/12/25 10:35:48;;;;;;;;;;;;;;;15.59;65.19;99827.31;4974182;28;7286;-90
2023/12/25 10:38:38;;;;;;;;;;;;;;;15.64;65.54;99836.00;4953492;28;6787;-89
2023/12/25 10:41:49;;;;;;;;;;;;;;;15.78;64.81;99825.06;4952390;28;6994;-91
2023/12/25 10:44:15;;;;;;;;;;;;;;;15.84;65.29;99838.09;4987440;23;6819;-81
2023/12/25 10:46:42;;;;;;;;;;;;;;;15.91;65.24;99821.88;4951588;28;8478;-78
2023/12/25 10:49:08;;;;;;;;;;;;;;;15.98;64.63;99817.66;4949999;28;8429;-81
2023/12/25 10:51:35;;;;;;;;;;;;;;;16.03;64.52;99815.16;4952106;28;7007;-81
2023/12/25 10:54:03;;;;;;;;;;;;;;;16.08;64.55;99816.13;4940139;28;7972;-80
2023/12/25 10:56:34;;;;;;;;;;;;;;;16.14;64.37;99815.34;4949698;28;6820;-80
2023/12/25 10:59:21;;;;;;;;;;;;;;;16.17;64.04;99821.44;4949323;28;7065;-81
2023/12/25 11:01:48;;;;;;;;;;;;;;;16.21;63.95;99825.81;4938552;28;6820;-80
2023/12/25 11:04:18;;;;;;;;;;;;;;;16.25;63.86;99813.78;4947599;28;6864;-80
2023/12/25 11:06:44;;;;;;;;;;;;;;;16.29;63.97;99830.22;4934005;28;7302;-83
2023/12/25 11:09:11;;;;;;;;;;;;;;;16.34;64.17;99815.66;4923225;28;8772;-81
2023/12/25 11:11:38;;;;;;;;;;;;;;;16.37;63.32;99833.81;4931196;28;8854;-80
2023/12/25 11:14:06;;;;;;;;;;;;;;;16.38;63.44;99840.72;4921031;29;8650;-77
2023/12/25 11:16:33;;;;;;;;;;;;;;;16.40;63.76;99849.34;4934914;28;6934;-79
2023/12/25 11:18:59;;;;;;;;;;;;;;;16.43;63.44;99826.16;4947748;28;7117;-80
2023/12/25 11:21:29;;;;;;;;;;;;;;;16.45;63.32;99819.28;4946751;28;8523;-78
2023/12/25 11:23:56;;;;;;;;;;;;;;;16.47;63.19;99822.75;4929992;28;7162;-81
2023/12/25 11:26:27;;;;;;;;;;;;;;;16.49;63.03;99821.03;4919265;28;6994;-78
2023/12/25 11:28:58;;;;;;;;;;;;;;;16.50;63.08;99809.00;4948664;28;7212;-80
2023/12/25 11:31:27;;;;;;;;;;;;;;;16.49;62.85;99808.13;4931043;28;6875;-81
2023/12/25 11:33:53;;;;;;;;;;;;;;;16.48;62.73;99808.13;4934857;28;7003;-79
2023/12/25 11:36:19;;;;;;;;;;;;;;;16.50;62.58;99811.59;4933339;28;6788;-78
2023/12/25 11:38:54;;;;;;;;;;;;;;;16.49;62.86;99818.47;4947980;28;6787;-74
2023/12/25 11:41:19;;;;;;;;;;;;;;;16.51;62.44;99816.78;4948306;28;7228;-76
2023/12/25 11:43:48;;;;;;;;;;;;;;;16.51;62.74;99806.44;4946567;28;6959;-76
2023/12/25 11:46:16;;;;;;;;;;;;;;;16.52;62.86;99797.84;4940354;28;8416;-77
2023/12/25 11:48:44;;;;;;;;;;;;;;;16.55;62.58;99809.91;4941876;28;7054;-75
2023/12/25 11:51:22;;;;;;;;;;;;;;;16.55;62.75;99812.50;4937220;28;6967;-74
2023/12/25 11:53:50;;;;;;;;;;;;;;;16.57;62.72;99786.66;4915489;28;7055;-76
2023/12/25 11:56:17;;;;;;;;;;;;;;;16.55;62.49;99798.72;4949859;28;6983;-75
2023/12/25 11:58:44;;;;;;;;;;;;;;;16.55;62.66;99811.66;4941652;28;7307;-76
2023/12/25 12:01:14;;;;;;;;;;;;;;;16.54;62.58;99807.31;4941663;28;7194;-75
2023/12/25 12:03:48;;;;;;;;;;;;;;;16.54;62.68;99817.66;4928438;28;8954;-75
2023/12/25 12:06:16;;;;;;;;;;;;;;;16.55;62.47;99822.84;4936698;28;8040;-75
2023/12/25 12:08:42;;;;;;;;;;;;;;;16.57;62.79;99821.19;4942669;28;7047;-76
2023/12/25 12:11:13;;;;;;;;;;;;;;;16.54;62.49;99818.53;4934441;28;6987;-75
2023/12/25 12:13:39;;;;;;;;;;;;;;;16.50;62.38;99829.69;4947883;28;9903;-76
2023/12/25 12:16:05;;;;;;;;;;;;;;;16.42;62.17;99833.88;4944565;28;8735;-76
2023/12/25 12:18:31;;;;;;;;;;;;;;;16.34;62.35;99828.59;4953689;28;7148;-75
2023/12/25 12:20:57;;;;;;;;;;;;;;;16.29;62.43;99825.06;4938589;28;6969;-75
2023/12/25 12:23:22;;;;;;;;;;;;;;;16.24;62.93;99818.13;4936521;28;6959;-76
2023/12/25 12:25:48;;;;;;;;;;;;;;;16.20;62.75;99831.81;4952099;28;6965;-75
2023/12/25 12:28:15;;;;;;;;;;;;;;;16.15;63.05;99817.09;4926616;28;7145;-76
2023/12/25 12:30:40;;;;;;;;;;;;;;;16.11;62.90;99823.91;4942402;28;7008;-74
2023/12/25 12:33:08;;;;;;;;;;;;;;;16.08;63.37;99810.94;4946466;28;6976;-75
2023/12/25 12:35:34;;;;;;;;;;;;;;;16.06;63.38;99805.75;4954481;28;6994;-75
2023/12/25 12:38:00;;;;;;;;;;;;;;;16.03;63.49;99797.06;4953008;28;7155;-76
2023/12/25 12:40:27;;;;;;;;;;;;;;;16.03;63.83;99797.06;4952996;28;6980;-75
2023/12/25 12:42:53;;;;;;;;;;;;;;;16.02;63.45;99792.75;4938326;28;6999;-76
2023/12/25 12:45:18;;;;;;;;;;;;;;;16.00;63.66;99782.41;4955056;28;7179;-75
2023/12/25 12:47:44;;;;;;;;;;;;;;;15.99;63.90;99787.53;4953390;28;6947;-76
2023/12/25 12:50:10;;;;;;;;;;;;;;;15.94;63.73;99793.53;4945755;28;6937;-76
2023/12/25 12:52:35;;;;;;;;;;;;;;;15.88;63.64;99795.97;4929703;28;7100;-76
2023/12/25 12:55:01;;;;;;;;;;;;;;;15.85;64.03;99798.50;4931785;28;6792;-76
2023/12/25 12:57:26;;;;;;;;;;;;;;;15.82;63.91;99811.34;4950988;28;6852;-76
2023/12/25 12:59:52;;;;;;;;;;;;;;;15.79;63.83;99799.28;4942733;28;6955;-77
2023/12/25 13:02:17;;;;;;;;;;;;;;;15.78;63.60;99820.75;4946276;28;6957;-76
2023/12/25 13:04:43;;;;;;;;;;;;;;;15.77;64.05;99823.34;4941722;28;6955;-76
2023/12/25 13:07:09;;;;;;;;;;;;;;;15.76;63.92;99826.75;4931472;28;11395;-76
2023/12/25 13:09:34;;;;;;;;;;;;;;;15.75;64.53;99832.78;4929365;28;6957;-76